Ottine, TX (78658)

11:51 AM CDT on September 02, 2014 (GMT -0500)
Gonzales Roger M. Dreyer Memo | Change Station
CLOSE
Current Station
Airport
Location: Gonzales Roger M. Dreyer Memo,
Elevation: 351 ft
Nearby Weather Stations

Elev 351 ft 29.53 °N, 97.46 °W | Updated 16 minutes ago

Scattered Clouds
Scattered Clouds
91 °F
Feels Like 101 °F
N
9
Wind Variable Wind from SSE

Today
High -- | Low -- °F
--% Chance of Precip.
Yesterday
High -- | Low -- °F
Precip. -- in
7:08 AM 7:51 PM
First Quarter, 53% visible
Pressure 29.96 in
Visibility 10.0 miles
Clouds Scattered Clouds 3700 ft
Scattered Clouds 5500 ft
Heat Index 101 °F
Dew Point 74 °F
Humidity 58%
Rainfall 0.00 in
Snow Depth Not available.
UV 7 out of 12
Pollen 8.40 out of 12
Ozone Good
Flu Activity Not available.
METAR KT20 021635Z AUTO 16008KT 10SM SCT037 SCT055 33/24 A2996 RMK AO2 T03280236

More Conditions Fewer Conditions

Pressure 29.96 in
Visibility 10.0 miles
Clouds Scattered Clouds 3700 ft
Scattered Clouds 5500 ft
Heat Index 101 °F
Dew Point 74 °F
Humidity 58%
Rainfall 0.00 in
Snow Depth Not available.
UV 7 out of 12
Pollen 8.40 out of 12
Ozone Good
Flu Activity Not available.
METAR KT20 021635Z AUTO 16008KT 10SM SCT037 SCT055 33/24 A2996 RMK AO2 T03280236

More Conditions Fewer Conditions

Nowcast | as of 10:56 am CDT on September 2, 2014

Through 1 PM...isolated showers will move toward the north. These showers will produce light to moderate rain. Spotty rainfall totals of one tenth of an inch are expected. Some of these showers could develop into thunderstorms and produce occasional lightning.

×

10-Day Weather Forecast

Almanac

Astronomy

Sep. 02, 2014 Rise Set
Actual Time 7:08 AM CDT 7:51 PM CDT
Civil Twilight 6:44 AM CDT 8:15 PM CDT
Nautical Twilight 6:15 AM CDT 8:43 PM CDT
Astronomical Twilight 5:46 AM CDT 9:12 PM CDT
Moon 2:22 PM CDT 12:25 AM CDT
Length of Visible Light 13h 31m
Length of Day
12h 43m
Tomorrow will be 1m 43s shorter.
First Quarter, 53% of the Moon is Illuminated
Today
First Quarter
Sep 8
Full
Sep 15
Last Quarter
Sep 24
New
Oct 1
First Quarter

Today's Extremes

State Highs State Lows

Community

WunderPhotos

Upload Photos

1,749,716 photos uploaded!

WunderBlogs® & News

Nearby

Air Quality

  Air Quality AQ Index Pollutant
Yesterday Good
OZONE
Current Good
OZONE
Tuesday Good
OZONE
Tuesday Good
PM10
Wednesday Good
OZONE
Wednesday Good
PM10
Thursday Good
OZONE
Thursday Good
PM10
Friday Good
OZONE
Friday Good
PM10

Snow Depth

Station Depth Elevation
No new snow has been reported.

Earthquake Activity

City Distance Mag. Time & Date
No recent earthquake activity has been reported nearby.
Minimum magnitude displayed is 2.5.

Coastal Water Temperatures

Place Temperature
No Stations Reporting

Nearby Weather Stations